Time;durP1;ratioP1;P1;durP2;ratioP2;P2;SDS_P1;SDS_P2;PMS_P1;PMS_P2;Temp;Humidity;BMP_temperature;BMP_pressure;BME280_temperature;BME280_humidity;BME280_pressure;Samples;Min_cycle;Max_cycle;Signal;HPM_P1;HPM_P2
2021/09/20 00:00:00;;;;;;;2.97;2.20;;;;;;;13.91;56.60;101463.19;689021;28;21551;-69
2021/09/20 00:00:22;;;;;;;2.60;2.40;;;;;;;13.91;56.44;101456.91;688480;28;1440;-69
2021/09/20 00:00:43;;;;;;;3.17;2.60;;;;;;;13.88;56.77;101461.66;687943;28;44443;-69
2021/09/20 00:01:04;;;;;;;3.10;2.50;;;;;;;13.90;56.83;101461.47;688876;28;22213;-69
2021/09/20 00:01:25;;;;;;;2.40;2.20;;;;;;;13.91;56.58;101459.63;688621;28;22875;-69
2021/09/20 00:01:47;;;;;;;4.20;2.30;;;;;;;13.90;56.68;101461.47;688934;28;22051;-69
2021/09/20 00:02:08;;;;;;;4.85;2.30;;;;;;;13.91;56.66;101460.47;687996;28;46002;-69
2021/09/20 00:02:33;;;;;;;2.40;2.20;;;;;;;13.91;56.78;101460.47;688051;28;36321;-69
2021/09/20 00:02:55;;;;;;;2.53;2.33;;;;;;;13.90;56.71;101457.94;688947;28;21531;-69
2021/09/20 00:03:16;;;;;;;2.40;2.25;;;;;;;13.92;56.67;101455.88;688509;28;46302;-69
2021/09/20 00:03:37;;;;;;;2.65;2.30;;;;;;;13.91;56.58;101454.19;688370;28;23412;-69
2021/09/20 00:03:59;;;;;;;3.10;2.40;;;;;;;13.90;56.59;101461.47;688726;28;22355;-69
2021/09/20 00:04:20;;;;;;;2.97;2.40;;;;;;;13.90;56.64;101461.47;687869;28;44358;-69
2021/09/20 00:04:42;;;;;;;2.63;2.42;;;;;;;13.89;56.58;101462.53;688870;28;22223;-69
2021/09/20 00:05:04;;;;;;;2.20;2.10;;;;;;;13.90;56.52;101461.47;687826;28;46171;-69
2021/09/20 00:05:25;;;;;;;2.50;2.40;;;;;;;13.88;56.49;101456.22;688150;28;44384;-69
2021/09/20 00:05:46;;;;;;;2.63;2.42;;;;;;;13.90;56.71;101468.78;688403;28;22415;-69
2021/09/20 00:06:08;;;;;;;3.00;2.40;;;;;;;13.90;56.55;101460.66;689109;28;23602;-69
2021/09/20 00:06:30;;;;;;;3.10;2.20;;;;;;;13.88;56.58;101460.81;689580;28;1710;-69
2021/09/20 00:06:51;;;;;;;2.65;2.30;;;;;;;13.89;56.94;101465.25;688532;28;22426;-69
2021/09/20 00:07:13;;;;;;;2.65;2.17;;;;;;;13.88;56.91;101461.66;688952;28;22899;-69
2021/09/20 00:07:35;;;;;;;3.53;2.15;;;;;;;13.91;56.48;101459.63;687392;28;44427;-69
2021/09/20 00:07:57;;;;;;;3.10;2.42;;;;;;;13.88;56.81;101455.41;688169;28;23517;-69
2021/09/20 00:08:18;;;;;;;2.55;2.35;;;;;;;13.92;56.74;101461.31;687329;28;67493;-69
2021/09/20 00:08:40;;;;;;;3.15;2.42;;;;;;;13.89;56.65;101457.09;688583;28;22359;-69
2021/09/20 00:09:01;;;;;;;2.38;2.17;;;;;;;13.89;56.71;101457.09;688111;28;45238;-69
2021/09/20 00:09:22;;;;;;;2.63;2.42;;;;;;;13.92;56.85;101459.44;688406;28;21567;-69
2021/09/20 00:09:43;;;;;;;2.65;2.33;;;;;;;13.93;56.88;101463.84;688770;28;22402;-69
2021/09/20 00:10:07;;;;;;;2.60;2.40;;;;;;;13.94;56.74;101462.81;688749;28;23166;-68
2021/09/20 00:10:28;;;;;;;2.47;2.30;;;;;;;13.93;56.76;101469.25;685740;28;92278;-69
2021/09/20 00:10:50;;;;;;;2.53;2.33;;;;;;;13.92;56.63;101462.16;688239;28;22426;-69
2021/09/20 00:11:12;;;;;;;2.58;2.38;;;;;;;13.94;56.56;101462.81;688058;28;46295;-69
2021/09/20 00:11:33;;;;;;;2.75;2.55;;;;;;;13.94;56.55;101453.84;688914;28;21382;-69
2021/09/20 00:11:55;;;;;;;2.58;2.38;;;;;;;13.94;56.85;101462.81;688658;28;22413;-69
2021/09/20 00:12:16;;;;;;;2.72;2.40;;;;;;;13.96;56.69;101458.03;689282;28;43669;-69
2021/09/20 00:12:37;;;;;;;2.63;2.38;;;;;;;13.96;56.47;101463.47;691469;28;1803;-69
2021/09/20 00:12:59;;;;;;;2.80;2.60;;;;;;;13.98;56.64;101449.72;690305;28;46343;-69
2021/09/20 00:13:20;;;;;;;2.60;2.40;;;;;;;14.00;56.59;101461.25;687375;28;46310;-69
2021/09/20 00:13:41;;;;;;;2.72;2.53;;;;;;;14.01;56.40;101457.50;688621;28;23490;-69
2021/09/20 00:14:02;;;;;;;2.50;2.30;;;;;;;14.02;56.54;101459.19;688676;28;22391;-69
2021/09/20 00:14:24;;;;;;;2.58;2.38;;;;;;;14.02;56.60;101461.91;688469;28;23303;-69
2021/09/20 00:14:45;;;;;;;3.03;2.40;;;;;;;14.01;56.63;101457.50;687778;28;45253;-69
2021/09/20 00:15:09;;;;;;;2.75;2.50;;;;;;;14.00;56.62;101459.38;688568;28;22393;-69
2021/09/20 00:15:31;;;;;;;2.80;2.38;;;;;;;14.01;56.67;101461.06;687292;28;69136;-69
2021/09/20 00:15:52;;;;;;;2.85;2.45;;;;;;;14.01;56.88;101463.78;687502;28;45149;-69
2021/09/20 00:16:13;;;;;;;4.07;2.33;;;;;;;14.01;56.85;101461.06;689045;28;21564;-69
2021/09/20 00:16:34;;;;;;;4.60;2.40;;;;;;;14.01;56.76;101463.78;687878;28;46294;-69
2021/09/20 00:16:57;;;;;;;2.67;2.47;;;;;;;13.99;56.46;101459.56;688687;28;22331;-69
2021/09/20 00:17:18;;;;;;;2.55;2.35;;;;;;;13.99;56.69;101459.56;687705;28;45258;-69
2021/09/20 00:17:39;;;;;;;2.60;2.40;;;;;;;13.98;56.80;101456.00;687678;28;22395;-69
2021/09/20 00:18:00;;;;;;;3.00;2.30;;;;;;;13.98;56.77;101456.00;688500;28;23550;-69
2021/09/20 00:18:22;;;;;;;2.30;2.20;;;;;;;13.96;56.76;101459.91;688971;28;22385;-69
2021/09/20 00:18:43;;;;;;;2.55;2.35;;;;;;;13.97;56.61;101464.34;686373;28;46279;-69
2021/09/20 00:19:04;;;;;;;3.00;2.40;;;;;;;13.96;56.93;101468.06;688644;28;23472;-69
2021/09/20 00:19:25;;;;;;;3.40;2.53;;;;;;;13.96;56.74;101458.03;688561;28;23509;-69
2021/09/20 00:19:47;;;;;;;4.78;2.50;;;;;;;13.97;56.66;101462.47;688737;28;23456;-69
2021/09/20 00:20:10;;;;;;;2.70;2.50;;;;;;;13.95;56.74;101464.50;687973;28;44979;-69
2021/09/20 00:20:31;;;;;;;2.60;2.40;;;;;;;13.96;56.55;101463.47;687237;28;73432;-69
2021/09/20 00:20:53;;;;;;;2.40;2.20;;;;;;;13.97;56.90;101461.63;687538;28;46399;-69
2021/09/20 00:21:15;;;;;;;2.40;2.30;;;;;;;13.97;56.80;101465.16;688858;28;21426;-68
2021/09/20 00:21:36;;;;;;;2.30;2.20;;;;;;;13.97;56.73;101465.16;688305;28;46457;-69
2021/09/20 00:21:57;;;;;;;2.65;2.38;;;;;;;13.96;56.88;101459.91;688493;28;20898;-69
2021/09/20 00:22:18;;;;;;;2.42;2.22;;;;;;;13.94;56.55;101465.53;688833;28;21548;-69
2021/09/20 00:22:40;;;;;;;2.53;2.33;;;;;;;13.94;56.54;101461.97;689004;28;22492;-69
2021/09/20 00:23:03;;;;;;;2.60;2.40;;;;;;;13.89;56.59;101454.38;687474;28;44165;-69
2021/09/20 00:23:24;;;;;;;2.50;2.30;;;;;;;13.94;56.57;101462.81;687134;28;69411;-69
2021/09/20 00:23:46;;;;;;;2.78;2.58;;;;;;;13.93;56.75;101463.84;688554;28;20819;-69
2021/09/20 00:24:07;;;;;;;2.30;2.20;;;;;;;13.91;56.76;101457.75;688286;28;46187;-69
2021/09/20 00:24:28;;;;;;;2.47;2.28;;;;;;;13.93;56.91;101458.41;689215;28;1532;-69
2021/09/20 00:24:49;;;;;;;2.53;2.20;;;;;;;13.92;57.07;101456.72;688276;28;23460;-69
2021/09/20 00:25:12;;;;;;;2.83;2.55;;;;;;;13.89;56.79;101459.81;688571;28;22498;-69
2021/09/20 00:25:33;;;;;;;2.90;2.70;;;;;;;13.91;57.08;101465.91;686963;28;69425;-69
2021/09/20 00:25:57;;;;;;;2.78;2.55;;;;;;;13.89;57.12;101465.25;688361;28;22379;-69
2021/09/20 00:26:18;;;;;;;3.33;2.60;;;;;;;13.89;57.09;101462.53;686494;28;92212;-68
2021/09/20 00:26:40;;;;;;;2.80;2.60;;;;;;;13.88;57.13;101458.94;688639;28;22514;-69
2021/09/20 00:27:01;;;;;;;3.00;2.55;;;;;;;13.88;56.86;101463.53;689465;28;46308;-69
2021/09/20 00:27:22;;;;;;;4.00;2.45;;;;;;;13.88;56.95;101466.25;691121;28;21383;-69
2021/09/20 00:27:44;;;;;;;2.63;2.20;;;;;;;13.87;57.25;101454.56;690100;28;22254;-69
2021/09/20 00:28:05;;;;;;;2.58;2.38;;;;;;;13.87;56.96;101465.44;690451;28;45257;-69
2021/09/20 00:28:28;;;;;;;2.60;2.40;;;;;;;13.87;56.97;101465.44;691930;28;1619;-69
2021/09/20 00:28:49;;;;;;;2.63;2.30;;;;;;;13.84;57.12;101454.06;690375;28;23477;-69
2021/09/20 00:29:10;;;;;;;2.50;2.30;;;;;;;13.84;57.00;101457.63;688630;28;22436;-69
2021/09/20 00:29:32;;;;;;;2.42;2.22;;;;;;;13.85;57.36;101464.75;688740;28;23500;-69
2021/09/20 00:29:53;;;;;;;2.45;2.35;;;;;;;13.87;57.32;101464.56;687966;28;46312;-69
2021/09/20 00:30:14;;;;;;;2.30;2.20;;;;;;;13.83;57.08;101460.53;688714;28;21377;-69
2021/09/20 00:30:40;;;;;;;2.45;2.25;;;;;;;13.86;57.37;101465.59;688870;28;22410;-69
2021/09/20 00:31:01;;;;;;;2.67;2.38;;;;;;;13.85;57.03;101467.44;685799;28;159411;-69
2021/09/20 00:31:22;;;;;;;2.47;2.30;;;;;;;13.87;57.30;101461.84;690444;28;40272;-69
2021/09/20 00:31:44;;;;;;;2.42;2.22;;;;;;;13.87;57.32;101465.44;691280;28;23583;-69
2021/09/20 00:32:06;;;;;;;2.40;2.13;;;;;;;13.89;57.21;101465.25;691168;28;22394;-69
2021/09/20 00:32:30;;;;;;;3.50;2.40;;;;;;;13.90;57.38;101461.47;690100;28;60351;-69
2021/09/20 00:32:51;;;;;;;3.45;2.60;;;;;;;13.92;57.01;101462.16;689937;28;22294;-69
2021/09/20 00:33:12;;;;;;;4.15;2.47;;;;;;;13.95;56.97;101458.22;688817;28;22409;-69
2021/09/20 00:33:35;;;;;;;3.00;2.70;;;;;;;13.95;56.90;101461.81;688479;28;21539;-69
2021/09/20 00:33:56;;;;;;;3.03;2.72;;;;;;;13.96;57.21;101468.06;687956;28;44180;-69
2021/09/20 00:34:17;;;;;;;2.70;2.30;;;;;;;13.95;57.14;101463.66;688557;28;22423;-69
2021/09/20 00:34:38;;;;;;;3.25;2.33;;;;;;;13.95;56.85;101464.50;688727;28;23416;-69
2021/09/20 00:35:00;;;;;;;2.78;2.58;;;;;;;13.96;56.83;101457.19;691138;28;19902;-68
2021/09/20 00:35:22;;;;;;;3.67;2.65;;;;;;;13.95;56.88;101461.81;687795;28;47604;-69
2021/09/20 00:35:43;;;;;;;3.72;2.60;;;;;;;13.96;57.17;101459.91;687869;28;45301;-69
2021/09/20 00:36:07;;;;;;;2.70;2.45;;;;;;;13.96;56.78;101457.19;688091;28;23718;-69
2021/09/20 00:36:29;;;;;;;2.50;2.30;;;;;;;13.97;56.86;101459.75;687106;28;45841;-69
2021/09/20 00:36:50;;;;;;;2.55;2.35;;;;;;;13.98;57.08;101463.28;686247;28;44793;-69
2021/09/20 00:37:11;;;;;;;2.70;2.50;;;;;;;13.95;56.93;101460.94;687948;28;22383;-69
2021/09/20 00:37:33;;;;;;;2.88;2.42;;;;;;;13.97;57.01;101457.03;689354;28;23374;-69
2021/09/20 00:37:55;;;;;;;3.13;2.20;;;;;;;13.96;56.99;101455.31;688603;28;46396;-69
2021/09/20 00:38:17;;;;;;;3.42;2.42;;;;;;;14.00;56.79;101458.53;688526;28;45068;-68
2021/09/20 00:38:38;;;;;;;3.47;2.40;;;;;;;13.98;56.60;101456.00;688069;28;69447;-68
2021/09/20 00:39:00;;;;;;;3.20;2.45;;;;;;;13.97;56.75;101454.31;688279;28;45291;-68
2021/09/20 00:39:22;;;;;;;2.78;2.40;;;;;;;13.99;56.77;101459.56;688409;28;22279;-68
2021/09/20 00:39:43;;;;;;;2.80;2.40;;;;;;;13.98;56.71;101460.56;687690;28;45245;-68
2021/09/20 00:40:05;;;;;;;2.63;2.42;;;;;;;13.98;56.89;101463.28;688757;28;22610;-68
2021/09/20 00:40:26;;;;;;;2.60;2.40;;;;;;;13.95;56.75;101463.66;687391;28;46195;-68
2021/09/20 00:40:48;;;;;;;2.92;2.20;;;;;;;13.97;56.81;101469.78;688740;28;22418;-68
2021/09/20 00:41:11;;;;;;;3.45;2.30;;;;;;;13.94;56.82;101451.94;687429;28;46338;-68
2021/09/20 00:41:32;;;;;;;2.50;2.30;;;;;;;13.96;56.85;101465.34;687305;28;67231;-68
2021/09/20 00:41:53;;;;;;;2.83;2.60;;;;;;;13.94;56.79;101461.97;688505;28;22394;-68
2021/09/20 00:42:15;;;;;;;2.75;2.55;;;;;;;13.94;57.11;101460.09;688804;28;21277;-68
2021/09/20 00:42:36;;;;;;;2.47;2.28;;;;;;;13.92;57.19;101461.31;687518;28;44418;-68
2021/09/20 00:42:57;;;;;;;2.60;2.40;;;;;;;13.93;56.83;101469.25;688610;28;23621;-68
2021/09/20 00:43:19;;;;;;;2.55;2.35;;;;;;;13.91;56.83;101457.75;689291;28;21292;-68
2021/09/20 00:43:41;;;;;;;2.67;2.47;;;;;;;13.91;57.21;101462.34;686568;28;46343;-69
2021/09/20 00:44:02;;;;;;;2.70;2.50;;;;;;;13.90;57.11;101472.34;688012;28;23407;-69
2021/09/20 00:44:24;;;;;;;2.38;2.22;;;;;;;13.89;56.98;101462.53;687739;28;46175;-68
2021/09/20 00:44:45;;;;;;;2.40;2.20;;;;;;;13.87;57.27;101456.41;688626;28;23424;-68
2021/09/20 00:45:08;;;;;;;2.63;2.35;;;;;;;13.86;57.47;101465.59;688897;28;22431;-68
2021/09/20 00:45:29;;;;;;;2.63;2.30;;;;;;;13.84;57.33;101465.78;686563;28;69431;-68
2021/09/20 00:45:50;;;;;;;3.97;2.55;;;;;;;13.79;57.37;101457.34;687977;28;45369;-69
2021/09/20 00:46:11;;;;;;;4.65;2.53;;;;;;;13.84;57.40;101462.19;688609;28;22408;-69
2021/09/20 00:46:33;;;;;;;2.45;2.17;;;;;;;13.84;57.20;101457.63;688839;28;22454;-68
2021/09/20 00:46:54;;;;;;;3.08;2.35;;;;;;;13.83;57.53;101463.25;687861;28;45263;-68
2021/09/20 00:47:15;;;;;;;3.30;2.78;;;;;;;13.84;57.32;101462.19;688583;28;23530;-68
2021/09/20 00:47:37;;;;;;;2.42;2.13;;;;;;;13.84;57.58;101464.91;687899;28;23434;-68
2021/09/20 00:47:59;;;;;;;3.28;2.38;;;;;;;13.82;57.21;101459.69;688475;28;21528;-68
2021/09/20 00:48:20;;;;;;;3.22;2.33;;;;;;;13.79;57.40;101457.34;688011;28;44454;-69
2021/09/20 00:48:41;;;;;;;4.28;2.70;;;;;;;13.82;57.22;101459.69;688489;28;22395;-69
2021/09/20 00:49:02;;;;;;;3.53;2.50;;;;;;;13.83;57.50;101457.81;688048;28;45227;-69
2021/09/20 00:49:24;;;;;;;2.70;2.22;;;;;;;13.83;57.37;101455.09;688619;28;21516;-69
2021/09/20 00:49:46;;;;;;;2.45;2.25;;;;;;;13.81;57.51;101455.28;687772;28;46369;-69
2021/09/20 00:50:08;;;;;;;2.63;2.30;;;;;;;13.83;57.59;101463.25;688804;28;22231;-68
2021/09/20 00:50:29;;;;;;;2.90;2.35;;;;;;;13.82;57.28;101459.69;688119;28;44392;-68
2021/09/20 00:50:51;;;;;;;3.85;2.47;;;;;;;13.81;57.55;101459.88;688780;28;22385;-68
2021/09/20 00:51:12;;;;;;;2.78;2.50;;;;;;;13.77;57.61;101455.81;689457;28;66089;-68
2021/09/20 00:51:33;;;;;;;3.40;2.33;;;;;;;13.79;57.44;101451.91;691218;28;24067;-68
2021/09/20 00:51:54;;;;;;;3.00;2.38;;;;;;;13.80;57.38;101460.91;690895;28;22506;-69
2021/09/20 00:52:16;;;;;;;3.90;2.40;;;;;;;13.79;57.50;101456.47;691200;28;23431;-68
2021/09/20 00:52:38;;;;;;;3.33;2.55;;;;;;;13.78;57.74;101458.34;690420;28;46305;-68
2021/09/20 00:52:59;;;;;;;3.47;2.70;;;;;;;13.78;57.74;101458.34;691089;28;23304;-69
2021/09/20 00:53:21;;;;;;;2.78;2.40;;;;;;;13.78;57.65;101462.97;690732;28;22414;-68
2021/09/20 00:53:43;;;;;;;2.97;2.30;;;;;;;13.79;57.67;101464.63;689766;28;46347;-68
2021/09/20 00:54:04;;;;;;;2.60;2.40;;;;;;;13.77;57.75;101453.94;688196;28;45288;-69
2021/09/20 00:54:26;;;;;;;2.92;2.60;;;;;;;13.77;57.43;101462.09;689148;28;1622;-68
2021/09/20 00:54:50;;;;;;;3.00;2.50;;;;;;;13.77;57.45;101459.38;688433;28;21544;-68
2021/09/20 00:55:12;;;;;;;2.50;2.30;;;;;;;13.77;57.87;101469.41;686350;28;91898;-68
2021/09/20 00:55:34;;;;;;;2.70;2.50;;;;;;;13.79;57.50;101468.22;687841;28;44416;-68
2021/09/20 00:55:56;;;;;;;2.70;2.50;;;;;;;13.76;57.63;101460.41;687013;28;67491;-69
2021/09/20 00:56:17;;;;;;;2.65;2.42;;;;;;;13.76;57.46;101456.84;688260;28;23476;-68
2021/09/20 00:56:38;;;;;;;3.38;2.45;;;;;;;13.77;57.60;101459.38;688681;28;23512;-68
2021/09/20 00:57:00;;;;;;;4.38;2.30;;;;;;;13.77;57.77;101463.97;688815;28;22423;-68
2021/09/20 00:57:22;;;;;;;3.25;2.50;;;;;;;13.75;57.67;101456.00;687912;28;46056;-68
2021/09/20 00:57:44;;;;;;;2.60;2.40;;;;;;;13.76;57.63;101460.41;687151;28;46734;-68
2021/09/20 00:58:05;;;;;;;2.70;2.50;;;;;;;13.74;57.68;101458.91;687923;28;46431;-68
2021/09/20 00:58:27;;;;;;;2.42;2.33;;;;;;;13.76;57.97;101467.69;688653;28;21536;-68
2021/09/20 00:58:49;;;;;;;2.25;2.15;;;;;;;13.75;57.62;101455.16;686757;28;69970;-68
2021/09/20 00:59:10;;;;;;;3.08;2.45;;;;;;;13.57;57.81;101431.84;688759;28;21310;-68
2021/09/20 00:59:31;;;;;;;2.70;2.50;;;;;;;13.74;57.83;101464.31;688385;28;21534;-68
2021/09/20 00:59:52;;;;;;;2.60;2.30;;;;;;;13.73;57.94;101457.19;688496;28;22426;-68
2021/09/20 01:00:15;;;;;;;2.55;2.35;;;;;;;13.74;57.96;101458.91;688840;28;22397;-68
2021/09/20 01:00:41;;;;;;;2.50;2.30;;;;;;;13.73;57.88;101460.78;689510;28;61032;-68
2021/09/20 01:01:02;;;;;;;2.58;2.38;;;;;;;13.72;57.67;101456.38;689311;28;46418;-68
2021/09/20 01:01:24;;;;;;;2.70;2.40;;;;;;;13.73;57.91;101459.91;691133;28;22245;-68
2021/09/20 01:01:45;;;;;;;2.92;2.25;;;;;;;13.73;57.70;101459.91;690421;28;46331;-68
2021/09/20 01:02:06;;;;;;;3.67;2.15;;;;;;;13.73;57.62;101459.91;691171;28;22370;-68
2021/09/20 01:02:28;;;;;;;2.55;2.33;;;;;;;13.72;57.97;101458.25;690040;28;22470;-69
2021/09/20 01:02:50;;;;;;;2.80;2.60;;;;;;;13.72;57.93;101461.78;688333;28;21325;-68
2021/09/20 01:03:11;;;;;;;2.88;2.55;;;;;;;13.70;57.74;101461.97;687743;28;46760;-68
2021/09/20 01:03:33;;;;;;;2.60;2.40;;;;;;;13.71;57.66;101460.09;688784;28;22405;-68
2021/09/20 01:03:54;;;;;;;2.65;2.45;;;;;;;13.70;57.59;101461.13;687040;28;69388;-68
2021/09/20 01:04:17;;;;;;;3.00;2.40;;;;;;;13.70;58.02;101456.53;689332;28;2924;-68
2021/09/20 01:04:38;;;;;;;2.80;2.60;;;;;;;13.70;57.88;101461.97;687529;28;44400;-68
2021/09/20 01:04:59;;;;;;;3.75;2.70;;;;;;;13.72;57.95;101463.69;688707;28;23743;-68
2021/09/20 01:05:20;;;;;;;2.60;2.40;;;;;;;13.72;58.05;101460.97;688994;28;22406;-68
2021/09/20 01:05:42;;;;;;;2.65;2.22;;;;;;;13.70;57.72;101461.13;687344;28;22132;-68
2021/09/20 01:06:03;;;;;;;2.83;2.38;;;;;;;13.70;57.71;101461.97;686950;28;46263;-68
2021/09/20 01:06:24;;;;;;;2.85;2.50;;;;;;;13.70;57.74;101458.44;688609;28;23579;-69
2021/09/20 01:06:45;;;;;;;2.70;2.50;;;;;;;13.70;57.78;101456.53;687620;28;46293;-69
2021/09/20 01:07:07;;;;;;;3.58;2.40;;;;;;;13.70;57.84;101455.72;687712;28;46391;-68
2021/09/20 01:07:28;;;;;;;3.22;2.20;;;;;;;13.69;57.72;101462.16;687830;28;45246;-68
2021/09/20 01:07:49;;;;;;;2.60;2.35;;;;;;;13.67;57.84;101470.47;687761;28;21540;-68
2021/09/20 01:08:10;;;;;;;2.70;2.42;;;;;;;13.68;57.93;101460.44;688569;28;22406;-68
2021/09/20 01:08:33;;;;;;;2.50;2.30;;;;;;;13.68;57.76;101460.44;688732;28;22176;-68
2021/09/20 01:08:55;;;;;;;2.40;2.20;;;;;;;13.67;57.93;101462.34;686379;28;46338;-68
2021/09/20 01:09:16;;;;;;;3.22;2.30;;;;;;;13.66;57.72;101460.63;687819;28;44374;-69
2021/09/20 01:09:40;;;;;;;2.38;2.28;;;;;;;13.67;58.01;101464.22;687618;28;46407;-69
2021/09/20 01:10:02;;;;;;;3.58;2.53;;;;;;;13.66;57.76;101454.38;688926;28;90607;-68
2021/09/20 01:10:24;;;;;;;2.70;2.50;;;;;;;13.66;57.81;101462.50;691862;28;1156;-68
2021/09/20 01:10:45;;;;;;;2.60;2.40;;;;;;;13.64;57.99;101465.41;689573;28;46406;-68
2021/09/20 01:11:07;;;;;;;2.63;2.42;;;;;;;13.64;57.85;101465.41;690796;28;21551;-69
2021/09/20 01:11:28;;;;;;;2.50;2.30;;;;;;;13.63;57.85;101463.69;691193;28;22424;-68
2021/09/20 01:11:50;;;;;;;2.47;2.38;;;;;;;13.59;57.81;101458.81;690669;28;22358;-68
2021/09/20 01:12:12;;;;;;;2.42;2.22;;;;;;;13.59;58.08;101461.53;688267;28;44402;-68
2021/09/20 01:12:33;;;;;;;2.47;2.25;;;;;;;13.61;58.08;101465.75;687826;28;46331;-69
2021/09/20 01:12:54;;;;;;;2.45;2.25;;;;;;;13.61;58.33;101467.63;688313;28;22383;-68
2021/09/20 01:13:16;;;;;;;2.60;2.45;;;;;;;13.60;57.98;101466.78;688493;28;23495;-68
2021/09/20 01:13:37;;;;;;;2.53;2.38;;;;;;;13.60;58.17;101465.94;688016;28;46312;-68
2021/09/20 01:13:58;;;;;;;2.58;2.35;;;;;;;13.62;58.06;101469.31;688682;28;23512;-69
2021/09/20 01:14:19;;;;;;;2.60;2.28;;;;;;;13.60;58.07;101469.50;688801;28;22409;-68
2021/09/20 01:14:40;;;;;;;2.13;2.03;;;;;;;13.60;58.39;101468.66;688200;28;21772;-68
2021/09/20 01:15:03;;;;;;;3.58;2.60;;;;;;;13.59;58.05;101470.53;687975;28;44376;-69
2021/09/20 01:15:25;;;;;;;3.40;2.40;;;;;;;13.56;58.17;101461.88;687897;28;45814;-69
2021/09/20 01:15:46;;;;;;;2.55;2.30;;;;;;;13.58;58.07;101465.28;687716;28;46368;-69
2021/09/20 01:16:07;;;;;;;2.58;2.38;;;;;;;13.58;58.22;101470.72;688532;28;22379;-68
2021/09/20 01:16:29;;;;;;;2.42;2.30;;;;;;;13.57;58.48;101474.44;688658;28;22387;-68
2021/09/20 01:16:50;;;;;;;2.55;2.40;;;;;;;13.56;58.51;101470.88;686437;28;44380;-68
2021/09/20 01:17:11;;;;;;;2.35;2.20;;;;;;;13.56;58.44;101475.44;688844;28;21069;-68
2021/09/20 01:17:32;;;;;;;2.60;2.40;;;;;;;13.55;58.61;101474.63;689147;28;23649;-68
2021/09/20 01:17:53;;;;;;;2.65;2.20;;;;;;;13.54;58.35;101474.78;687894;28;22446;-68
2021/09/20 01:18:15;;;;;;;2.65;2.17;;;;;;;13.54;58.62;101470.22;687867;28;46259;-68
2021/09/20 01:18:37;;;;;;;2.40;2.30;;;;;;;13.52;58.30;101466.84;687244;28;46284;-68
2021/09/20 01:18:58;;;;;;;2.65;2.45;;;;;;;13.56;58.55;101479.03;688407;28;23482;-68
2021/09/20 01:19:19;;;;;;;3.03;2.50;;;;;;;13.56;58.36;101470.03;688853;28;23509;-69
2021/09/20 01:19:41;;;;;;;2.97;2.30;;;;;;;13.58;58.29;101476.16;688592;28;22363;-68
2021/09/20 01:20:03;;;;;;;3.13;2.40;;;;;;;13.58;58.29;101474.25;687713;28;45265;-68
2021/09/20 01:20:24;;;;;;;2.95;2.67;;;;;;;13.58;58.22;101473.44;687959;28;44147;-68
2021/09/20 01:20:45;;;;;;;2.60;2.40;;;;;;;13.60;58.54;101472.22;688609;28;24293;-68
2021/09/20 01:21:07;;;;;;;2.35;2.25;;;;;;;13.60;58.35;101472.22;688765;28;22418;-68
2021/09/20 01:21:28;;;;;;;2.40;2.20;;;;;;;13.61;58.39;101467.63;688463;28;26930;-68
2021/09/20 01:21:50;;;;;;;2.53;2.15;;;;;;;13.63;58.33;101474.56;687905;28;22567;-68
2021/09/20 01:22:14;;;;;;;3.20;2.58;;;;;;;13.65;58.41;101477.09;687355;28;46323;-68
2021/09/20 01:22:37;;;;;;;3.60;2.60;;;;;;;13.62;58.07;101467.47;686340;28;93659;-69
2021/09/20 01:23:00;;;;;;;3.15;2.63;;;;;;;13.61;58.09;101463.06;687658;28;68704;-68
2021/09/20 01:23:21;;;;;;;2.75;2.33;;;;;;;13.61;57.84;101471.19;687454;28;69473;-68
2021/09/20 01:23:43;;;;;;;2.60;2.35;;;;;;;13.64;57.81;101475.44;689580;28;22404;-69
2021/09/20 01:24:04;;;;;;;2.85;2.63;;;;;;;13.62;58.06;101469.31;686170;28;47325;-68
2021/09/20 01:24:27;;;;;;;2.58;2.35;;;;;;;13.64;58.17;101475.44;686973;28;22192;-68
2021/09/20 01:24:49;;;;;;;2.88;2.25;;;;;;;13.61;58.08;101475.78;685636;28;67522;-68
2021/09/20 01:25:11;;;;;;;3.63;2.35;;;;;;;13.62;57.71;101470.19;688472;28;23477;-69
2021/09/20 01:25:33;;;;;;;2.70;2.50;;;;;;;13.59;57.72;101467.81;687014;28;69446;-68
2021/09/20 01:25:55;;;;;;;3.00;2.70;;;;;;;13.64;57.78;101473.53;688394;28;23331;-68
2021/09/20 01:26:16;;;;;;;2.80;2.40;;;;;;;13.65;57.93;101477.09;687614;28;46323;-68
2021/09/20 01:26:37;;;;;;;3.20;2.38;;;;;;;13.64;57.69;101473.53;688634;28;22389;-68
2021/09/20 01:26:59;;;;;;;3.10;2.40;;;;;;;13.64;57.82;101476.25;685687;28;22405;-68
2021/09/20 01:27:22;;;;;;;2.60;2.40;;;;;;;13.65;58.11;101477.09;687044;28;69560;-68
2021/09/20 01:27:43;;;;;;;2.60;2.40;;;;;;;13.64;57.74;101473.53;686991;28;46344;-69
2021/09/20 01:28:04;;;;;;;3.05;2.20;;;;;;;13.65;57.96;101471.66;688714;28;21532;-68
2021/09/20 01:28:26;;;;;;;2.95;2.60;;;;;;;13.64;57.86;101472.72;688251;28;46322;-68
2021/09/20 01:28:47;;;;;;;2.60;2.40;;;;;;;13.61;57.82;101473.06;687400;28;47466;-68
2021/09/20 01:29:09;;;;;;;3.03;2.40;;;;;;;13.63;57.54;101477.28;688855;28;22416;-68
2021/09/20 01:29:30;;;;;;;2.88;2.67;;;;;;;13.64;57.72;101478.16;688702;28;21369;-68
2021/09/20 01:29:52;;;;;;;2.50;2.30;;;;;;;13.64;57.63;101478.97;687582;28;46658;-68
2021/09/20 01:30:14;;;;;;;2.65;2.45;;;;;;;13.64;57.90;101470.00;688501;28;22410;-68
2021/09/20 01:30:35;;;;;;;2.60;2.40;;;;;;;13.64;57.79;101472.72;687943;28;45251;-68
2021/09/20 01:30:56;;;;;;;2.50;2.30;;;;;;;13.64;57.54;101475.44;687560;28;46317;-69
2021/09/20 01:31:18;;;;;;;2.72;2.30;;;;;;;13.58;57.48;101465.28;688483;28;23508;-68
2021/09/20 01:31:41;;;;;;;2.65;2.42;;;;;;;13.63;57.69;101474.56;687718;28;46266;-68
2021/09/20 01:32:04;;;;;;;3.72;2.47;;;;;;;13.64;57.37;101478.97;686372;28;67578;-68
2021/09/20 01:32:25;;;;;;;3.92;2.55;;;;;;;13.63;57.38;101474.56;688064;28;45225;-68
2021/09/20 01:32:47;;;;;;;2.72;2.53;;;;;;;13.57;57.11;101467.13;687626;28;44356;-69
2021/09/20 01:33:09;;;;;;;2.65;2.45;;;;;;;13.62;57.24;101483.75;687395;28;46323;-68
2021/09/20 01:33:30;;;;;;;2.80;2.60;;;;;;;13.61;57.29;101475.78;688637;28;22410;-68
2021/09/20 01:33:51;;;;;;;2.70;2.50;;;;;;;13.60;57.22;101483.06;688137;28;23711;-68
2021/09/20 01:34:13;;;;;;;2.78;2.58;;;;;;;13.57;57.17;101469.84;688891;28;21372;-68
2021/09/20 01:34:35;;;;;;;2.70;2.50;;;;;;;13.59;57.22;101472.38;687915;28;45259;-69
2021/09/20 01:34:56;;;;;;;2.22;2.13;;;;;;;13.59;57.18;101481.41;687622;28;46301;-69
2021/09/20 01:35:17;;;;;;;2.60;2.40;;;;;;;13.60;57.49;101482.22;688323;28;23464;-69
2021/09/20 01:35:39;;;;;;;2.70;2.30;;;;;;;13.59;57.21;101480.53;688522;28;22281;-68
2021/09/20 01:36:00;;;;;;;2.90;2.30;;;;;;;13.59;57.27;101473.25;686939;28;67549;-68
2021/09/20 01:36:21;;;;;;;3.10;2.40;;;;;;;13.59;57.18;101478.69;687984;28;44488;-69
2021/09/20 01:36:43;;;;;;;2.55;2.33;;;;;;;13.59;57.38;101477.81;688576;28;22397;-69
2021/09/20 01:37:05;;;;;;;2.47;2.28;;;;;;;13.56;57.24;101473.59;688395;28;22415;-68
2021/09/20 01:37:26;;;;;;;2.78;2.58;;;;;;;13.58;57.33;101470.72;686771;28;46297;-68
2021/09/20 01:37:47;;;;;;;2.70;2.50;;;;;;;13.57;57.34;101477.16;687876;28;22408;-69
2021/09/20 01:38:10;;;;;;;2.92;2.50;;;;;;;13.54;57.00;101466.66;688521;28;21562;-68
2021/09/20 01:38:32;;;;;;;2.30;2.20;;;;;;;13.55;56.93;101476.50;686618;28;69465;-68
2021/09/20 01:38:53;;;;;;;2.95;2.00;;;;;;;13.55;57.01;101477.34;686528;28;45288;-68
2021/09/20 01:39:15;;;;;;;3.05;2.42;;;;;;;13.54;57.02;101475.63;688216;28;22395;-68
2021/09/20 01:39:37;;;;;;;2.80;2.60;;;;;;;13.52;57.25;101473.09;687903;28;44276;-69
2021/09/20 01:39:59;;;;;;;2.78;2.58;;;;;;;13.52;57.08;101470.38;687728;28;46345;-69
2021/09/20 01:40:20;;;;;;;2.53;2.33;;;;;;;13.52;56.97;101469.53;687548;28;45260;-68
2021/09/20 01:40:41;;;;;;;2.58;2.30;;;;;;;13.52;57.05;101477.69;688787;28;22446;-69
2021/09/20 01:41:03;;;;;;;3.03;2.42;;;;;;;13.51;57.07;101473.28;688669;28;21535;-68
2021/09/20 01:41:25;;;;;;;2.90;2.50;;;;;;;13.50;56.95;101475.16;687699;28;46395;-69
2021/09/20 01:41:47;;;;;;;3.17;2.20;;;;;;;13.47;57.21;101467.38;688546;28;23449;-68